Accueil
METAR-TAF:

METAR-TAF

Aéroports :

Gwadar, Pakistan

latitude: 25-13-59N, longitude: 062-19-46E, altitude: 29 m

METAR: absent

Heure: 18:59 (13:59 UTC)

Prévision

Le bulletin a été fait il y a 4 heures et 29 minutes, à 09:30 UTC
Prévision valable du 29 à 12 UTC au 01 à 12 UTC
Vent 8 kt de ouest/sud-ouest avec des rafales jusqu'à 18 kt
Visibilité: 6000 m
Evoluant progressivement
du 29 à 14 UTC au 29 à 16 UTC
Vent 10 kt de ouest/sud-ouest
Visibilité: 5000 m
brume sèche
Temporairement
du 01 à 00 UTC au 01 à 05 UTC
Vent 3 kt de direction variable
Visibilité: 1500 m
brume

TAF: OPGD 290930Z 2912/0112 24008G18KT 6000 NSC BECMG 2914/2916 24010KT 5000 HZ NSC TEMPO 0100/0105 VRB03KT 1500 BR NSC

Observations et prévisions météorologiques de plus de 4000 aéroports (messages METAR et TAF).

Les stations disponibles sont représentées par des disques jaunes et rouges sur la carte.

Passer la souris dessus pour voir le nom de la station.

Cliquer dessus pour voir les observations et prévisions météorologiques.

Pour changer de carte: cliquez sur les boutons verts avec une croix noire pour zoomer, sur le bouton vert avec un tiret pour effectuer un zoom arrière, ou sur les flèches vertes pour les cartes adjacentes.


METAR-TAF: